sensor_id;sensor_type;location;lat;lon;timestamp;P1;durP1;ratioP1;P2;durP2;ratioP2
19566;SDS011;9930;49.240;8.548;2022-09-03T00:00:44;0.80;;;0.80;;
19566;SDS011;9930;49.240;8.548;2022-09-03T00:03:26;1.10;;;1.00;;
19566;SDS011;9930;49.240;8.548;2022-09-03T00:06:13;1.17;;;1.02;;
19566;SDS011;9930;49.240;8.548;2022-09-03T00:11:46;2.20;;;1.13;;
19566;SDS011;9930;49.240;8.548;2022-09-03T00:14:43;0.98;;;0.98;;
19566;SDS011;9930;49.240;8.548;2022-09-03T00:19:55;0.73;;;0.73;;
19566;SDS011;9930;49.240;8.548;2022-09-03T00:22:33;1.00;;;1.00;;
19566;SDS011;9930;49.240;8.548;2022-09-03T00:25:08;1.52;;;1.00;;
19566;SDS011;9930;49.240;8.548;2022-09-03T00:27:41;0.93;;;0.93;;
19566;SDS011;9930;49.240;8.548;2022-09-03T00:30:15;0.80;;;0.80;;
19566;SDS011;9930;49.240;8.548;2022-09-03T00:32:45;1.63;;;1.00;;
19566;SDS011;9930;49.240;8.548;2022-09-03T00:35:31;1.55;;;1.15;;
19566;SDS011;9930;49.240;8.548;2022-09-03T00:38:24;1.10;;;1.00;;
19566;SDS011;9930;49.240;8.548;2022-09-03T00:46:52;0.85;;;0.85;;
19566;SDS011;9930;49.240;8.548;2022-09-03T00:52:50;1.00;;;1.00;;
19566;SDS011;9930;49.240;8.548;2022-09-03T00:55:35;1.27;;;1.00;;
19566;SDS011;9930;49.240;8.548;2022-09-03T00:58:30;1.05;;;1.05;;
19566;SDS011;9930;49.240;8.548;2022-09-03T01:01:09;0.90;;;0.80;;
19566;SDS011;9930;49.240;8.548;2022-09-03T01:03:54;1.30;;;1.00;;
19566;SDS011;9930;49.240;8.548;2022-09-03T01:07:05;1.15;;;0.98;;
19566;SDS011;9930;49.240;8.548;2022-09-03T01:09:52;1.75;;;1.10;;
19566;SDS011;9930;49.240;8.548;2022-09-03T01:18:48;1.00;;;0.90;;
19566;SDS011;9930;49.240;8.548;2022-09-03T01:28:17;1.20;;;1.10;;
19566;SDS011;9930;49.240;8.548;2022-09-03T01:39:34;1.08;;;0.98;;
19566;SDS011;9930;49.240;8.548;2022-09-03T01:48:17;1.05;;;0.98;;
19566;SDS011;9930;49.240;8.548;2022-09-03T02:00:16;1.60;;;0.90;;
19566;SDS011;9930;49.240;8.548;2022-09-03T02:02:47;0.90;;;0.82;;
19566;SDS011;9930;49.240;8.548;2022-09-03T02:05:23;1.92;;;0.90;;
19566;SDS011;9930;49.240;8.548;2022-09-03T02:08:07;1.65;;;0.90;;
19566;SDS011;9930;49.240;8.548;2022-09-03T02:13:17;1.05;;;1.00;;
19566;SDS011;9930;49.240;8.548;2022-09-03T02:16:01;0.93;;;0.90;;
19566;SDS011;9930;49.240;8.548;2022-09-03T02:18:38;1.40;;;0.88;;
19566;SDS011;9930;49.240;8.548;2022-09-03T02:21:12;1.33;;;1.23;;
19566;SDS011;9930;49.240;8.548;2022-09-03T02:23:41;0.98;;;0.95;;
19566;SDS011;9930;49.240;8.548;2022-09-03T02:26:08;1.38;;;1.10;;
19566;SDS011;9930;49.240;8.548;2022-09-03T02:28:40;1.00;;;1.00;;
19566;SDS011;9930;49.240;8.548;2022-09-03T02:31:06;1.65;;;1.10;;
19566;SDS011;9930;49.240;8.548;2022-09-03T02:33:34;1.20;;;1.08;;
19566;SDS011;9930;49.240;8.548;2022-09-03T02:36:05;1.00;;;0.90;;
19566;SDS011;9930;49.240;8.548;2022-09-03T02:38:37;0.90;;;0.90;;
19566;SDS011;9930;49.240;8.548;2022-09-03T02:41:06;0.82;;;0.80;;
19566;SDS011;9930;49.240;8.548;2022-09-03T02:46:28;1.25;;;0.90;;
19566;SDS011;9930;49.240;8.548;2022-09-03T02:49:05;1.23;;;0.95;;
19566;SDS011;9930;49.240;8.548;2022-09-03T02:51:36;1.05;;;1.00;;
19566;SDS011;9930;49.240;8.548;2022-09-03T02:54:06;1.27;;;0.90;;
19566;SDS011;9930;49.240;8.548;2022-09-03T02:56:35;0.93;;;0.93;;
19566;SDS011;9930;49.240;8.548;2022-09-03T02:59:03;0.93;;;0.93;;
19566;SDS011;9930;49.240;8.548;2022-09-03T03:01:31;1.10;;;0.90;;
19566;SDS011;9930;49.240;8.548;2022-09-03T03:03:58;1.73;;;1.00;;
19566;SDS011;9930;49.240;8.548;2022-09-03T03:06:24;1.58;;;1.15;;
19566;SDS011;9930;49.240;8.548;2022-09-03T03:08:50;1.33;;;0.95;;
19566;SDS011;9930;49.240;8.548;2022-09-03T03:11:19;1.50;;;1.00;;
19566;SDS011;9930;49.240;8.548;2022-09-03T03:13:47;1.13;;;1.05;;
19566;SDS011;9930;49.240;8.548;2022-09-03T03:16:13;2.70;;;1.10;;
19566;SDS011;9930;49.240;8.548;2022-09-03T03:18:40;1.20;;;1.10;;
19566;SDS011;9930;49.240;8.548;2022-09-03T03:21:08;1.05;;;0.90;;
19566;SDS011;9930;49.240;8.548;2022-09-03T03:23:35;1.35;;;1.00;;
19566;SDS011;9930;49.240;8.548;2022-09-03T03:26:07;1.23;;;1.00;;
19566;SDS011;9930;49.240;8.548;2022-09-03T03:28:42;1.00;;;1.00;;
19566;SDS011;9930;49.240;8.548;2022-09-03T03:31:13;1.00;;;0.90;;
19566;SDS011;9930;49.240;8.548;2022-09-03T03:34:00;0.90;;;0.90;;
19566;SDS011;9930;49.240;8.548;2022-09-03T03:36:29;1.00;;;1.00;;
19566;SDS011;9930;49.240;8.548;2022-09-03T03:38:58;1.15;;;0.90;;
19566;SDS011;9930;49.240;8.548;2022-09-03T03:41:32;2.22;;;1.02;;
19566;SDS011;9930;49.240;8.548;2022-09-03T03:44:03;1.20;;;1.10;;
19566;SDS011;9930;49.240;8.548;2022-09-03T03:46:33;1.20;;;1.10;;
19566;SDS011;9930;49.240;8.548;2022-09-03T03:49:02;0.70;;;0.70;;
19566;SDS011;9930;49.240;8.548;2022-09-03T03:51:33;1.10;;;1.00;;
19566;SDS011;9930;49.240;8.548;2022-09-03T03:54:01;0.90;;;0.80;;
19566;SDS011;9930;49.240;8.548;2022-09-03T03:56:27;0.90;;;0.90;;
19566;SDS011;9930;49.240;8.548;2022-09-03T03:58:53;0.85;;;0.85;;
19566;SDS011;9930;49.240;8.548;2022-09-03T04:01:20;2.90;;;1.48;;
19566;SDS011;9930;49.240;8.548;2022-09-03T04:03:49;0.90;;;0.90;;
19566;SDS011;9930;49.240;8.548;2022-09-03T04:06:18;1.30;;;1.10;;
19566;SDS011;9930;49.240;8.548;2022-09-03T04:08:45;1.45;;;1.30;;
19566;SDS011;9930;49.240;8.548;2022-09-03T04:11:18;1.98;;;0.98;;
19566;SDS011;9930;49.240;8.548;2022-09-03T04:13:47;0.80;;;0.80;;
19566;SDS011;9930;49.240;8.548;2022-09-03T04:16:18;0.80;;;0.80;;
19566;SDS011;9930;49.240;8.548;2022-09-03T04:18:47;0.80;;;0.80;;
19566;SDS011;9930;49.240;8.548;2022-09-03T04:21:18;1.35;;;1.02;;
19566;SDS011;9930;49.240;8.548;2022-09-03T04:23:57;1.95;;;0.90;;
19566;SDS011;9930;49.240;8.548;2022-09-03T04:26:31;1.55;;;1.10;;
19566;SDS011;9930;49.240;8.548;2022-09-03T04:29:04;1.20;;;1.08;;
19566;SDS011;9930;49.240;8.548;2022-09-03T04:31:35;0.98;;;0.90;;
19566;SDS011;9930;49.240;8.548;2022-09-03T04:34:04;1.83;;;1.10;;
19566;SDS011;9930;49.240;8.548;2022-09-03T04:36:33;0.88;;;0.88;;
19566;SDS011;9930;49.240;8.548;2022-09-03T04:39:04;1.13;;;1.02;;
19566;SDS011;9930;49.240;8.548;2022-09-03T04:41:34;1.27;;;0.93;;
19566;SDS011;9930;49.240;8.548;2022-09-03T04:44:05;0.93;;;0.93;;
19566;SDS011;9930;49.240;8.548;2022-09-03T04:46:31;0.95;;;0.95;;
19566;SDS011;9930;49.240;8.548;2022-09-03T04:48:57;1.08;;;1.00;;
19566;SDS011;9930;49.240;8.548;2022-09-03T04:51:27;1.00;;;0.90;;
19566;SDS011;9930;49.240;8.548;2022-09-03T04:54:00;1.60;;;1.25;;
19566;SDS011;9930;49.240;8.548;2022-09-03T04:56:32;1.10;;;1.00;;
19566;SDS011;9930;49.240;8.548;2022-09-03T04:59:00;1.30;;;1.17;;
19566;SDS011;9930;49.240;8.548;2022-09-03T05:01:32;1.20;;;1.10;;
19566;SDS011;9930;49.240;8.548;2022-09-03T05:04:03;1.40;;;0.90;;
19566;SDS011;9930;49.240;8.548;2022-09-03T05:06:31;1.23;;;1.05;;
19566;SDS011;9930;49.240;8.548;2022-09-03T05:09:01;1.40;;;0.95;;
19566;SDS011;9930;49.240;8.548;2022-09-03T05:11:34;1.35;;;1.13;;
19566;SDS011;9930;49.240;8.548;2022-09-03T05:14:01;2.78;;;1.10;;
19566;SDS011;9930;49.240;8.548;2022-09-03T05:16:31;1.17;;;1.10;;
19566;SDS011;9930;49.240;8.548;2022-09-03T05:18:58;1.25;;;1.15;;
19566;SDS011;9930;49.240;8.548;2022-09-03T05:21:32;0.98;;;0.90;;
19566;SDS011;9930;49.240;8.548;2022-09-03T05:24:02;1.65;;;1.00;;
19566;SDS011;9930;49.240;8.548;2022-09-03T05:26:31;1.23;;;1.13;;
19566;SDS011;9930;49.240;8.548;2022-09-03T05:29:04;1.13;;;1.08;;
19566;SDS011;9930;49.240;8.548;2022-09-03T05:31:32;1.15;;;1.08;;
19566;SDS011;9930;49.240;8.548;2022-09-03T05:34:03;1.23;;;1.05;;
19566;SDS011;9930;49.240;8.548;2022-09-03T05:36:34;1.33;;;1.00;;
19566;SDS011;9930;49.240;8.548;2022-09-03T05:39:03;1.10;;;1.00;;
19566;SDS011;9930;49.240;8.548;2022-09-03T05:41:34;1.70;;;1.20;;
19566;SDS011;9930;49.240;8.548;2022-09-03T05:44:02;1.30;;;1.20;;
19566;SDS011;9930;49.240;8.548;2022-09-03T05:46:31;1.30;;;1.20;;
19566;SDS011;9930;49.240;8.548;2022-09-03T05:49:02;2.30;;;1.13;;
19566;SDS011;9930;49.240;8.548;2022-09-03T05:51:33;1.55;;;1.10;;
19566;SDS011;9930;49.240;8.548;2022-09-03T05:54:03;1.48;;;1.10;;
19566;SDS011;9930;49.240;8.548;2022-09-03T05:56:32;1.08;;;1.02;;
19566;SDS011;9930;49.240;8.548;2022-09-03T05:59:00;1.42;;;1.00;;
19566;SDS011;9930;49.240;8.548;2022-09-03T06:01:34;1.05;;;0.90;;
19566;SDS011;9930;49.240;8.548;2022-09-03T06:04:04;1.45;;;1.20;;
19566;SDS011;9930;49.240;8.548;2022-09-03T06:06:39;1.98;;;1.50;;
19566;SDS011;9930;49.240;8.548;2022-09-03T06:09:09;1.30;;;1.20;;
19566;SDS011;9930;49.240;8.548;2022-09-03T06:11:39;1.38;;;1.20;;
19566;SDS011;9930;49.240;8.548;2022-09-03T06:14:07;2.10;;;1.33;;
19566;SDS011;9930;49.240;8.548;2022-09-03T06:16:39;1.90;;;1.20;;
19566;SDS011;9930;49.240;8.548;2022-09-03T06:19:15;1.85;;;1.23;;
19566;SDS011;9930;49.240;8.548;2022-09-03T06:21:44;1.77;;;1.30;;
19566;SDS011;9930;49.240;8.548;2022-09-03T06:24:17;1.25;;;1.13;;
19566;SDS011;9930;49.240;8.548;2022-09-03T06:26:49;1.55;;;1.40;;
19566;SDS011;9930;49.240;8.548;2022-09-03T06:29:15;1.52;;;1.40;;
19566;SDS011;9930;49.240;8.548;2022-09-03T06:31:43;1.30;;;1.20;;
19566;SDS011;9930;49.240;8.548;2022-09-03T06:34:12;1.45;;;1.17;;
19566;SDS011;9930;49.240;8.548;2022-09-03T06:36:39;1.30;;;1.20;;
19566;SDS011;9930;49.240;8.548;2022-09-03T06:39:07;1.50;;;1.40;;
19566;SDS011;9930;49.240;8.548;2022-09-03T06:41:33;1.40;;;1.30;;
19566;SDS011;9930;49.240;8.548;2022-09-03T06:44:06;1.50;;;1.40;;
19566;SDS011;9930;49.240;8.548;2022-09-03T06:46:36;3.80;;;1.58;;
19566;SDS011;9930;49.240;8.548;2022-09-03T06:49:06;1.48;;;1.38;;
19566;SDS011;9930;49.240;8.548;2022-09-03T06:51:33;1.50;;;1.40;;
19566;SDS011;9930;49.240;8.548;2022-09-03T06:54:05;1.83;;;1.60;;
19566;SDS011;9930;49.240;8.548;2022-09-03T06:56:36;1.35;;;1.25;;
19566;SDS011;9930;49.240;8.548;2022-09-03T06:59:08;1.67;;;1.42;;
19566;SDS011;9930;49.240;8.548;2022-09-03T07:01:37;1.30;;;1.20;;
19566;SDS011;9930;49.240;8.548;2022-09-03T07:04:05;1.90;;;1.52;;
19566;SDS011;9930;49.240;8.548;2022-09-03T07:06:36;2.13;;;1.40;;
19566;SDS011;9930;49.240;8.548;2022-09-03T07:09:05;2.70;;;1.35;;
19566;SDS011;9930;49.240;8.548;2022-09-03T07:11:32;1.98;;;1.38;;
19566;SDS011;9930;49.240;8.548;2022-09-03T07:14:02;2.08;;;1.88;;
19566;SDS011;9930;49.240;8.548;2022-09-03T07:16:36;1.50;;;1.40;;
19566;SDS011;9930;49.240;8.548;2022-09-03T07:19:02;1.73;;;1.52;;
19566;SDS011;9930;49.240;8.548;2022-09-03T07:21:31;1.67;;;1.48;;
19566;SDS011;9930;49.240;8.548;2022-09-03T07:24:01;1.40;;;1.30;;
19566;SDS011;9930;49.240;8.548;2022-09-03T07:26:29;1.60;;;1.50;;
19566;SDS011;9930;49.240;8.548;2022-09-03T07:28:58;1.40;;;1.30;;
19566;SDS011;9930;49.240;8.548;2022-09-03T07:31:31;1.77;;;1.67;;
19566;SDS011;9930;49.240;8.548;2022-09-03T07:34:06;1.40;;;1.30;;
19566;SDS011;9930;49.240;8.548;2022-09-03T07:36:38;2.75;;;1.60;;
19566;SDS011;9930;49.240;8.548;2022-09-03T07:39:07;1.70;;;1.58;;
19566;SDS011;9930;49.240;8.548;2022-09-03T07:41:37;2.03;;;1.77;;
19566;SDS011;9930;49.240;8.548;2022-09-03T07:44:07;1.85;;;1.40;;
19566;SDS011;9930;49.240;8.548;2022-09-03T07:46:34;2.28;;;1.65;;
19566;SDS011;9930;49.240;8.548;2022-09-03T07:49:04;1.50;;;1.40;;
19566;SDS011;9930;49.240;8.548;2022-09-03T07:51:34;1.65;;;1.48;;
19566;SDS011;9930;49.240;8.548;2022-09-03T07:54:03;1.60;;;1.42;;
19566;SDS011;9930;49.240;8.548;2022-09-03T07:56:35;1.63;;;1.50;;
19566;SDS011;9930;49.240;8.548;2022-09-03T07:59:06;2.05;;;1.83;;
19566;SDS011;9930;49.240;8.548;2022-09-03T08:01:33;2.83;;;1.80;;
19566;SDS011;9930;49.240;8.548;2022-09-03T08:04:02;1.70;;;1.60;;
19566;SDS011;9930;49.240;8.548;2022-09-03T08:06:31;2.70;;;1.80;;
19566;SDS011;9930;49.240;8.548;2022-09-03T08:09:02;1.70;;;1.60;;
19566;SDS011;9930;49.240;8.548;2022-09-03T08:11:32;2.17;;;1.80;;
19566;SDS011;9930;49.240;8.548;2022-09-03T08:14:05;1.70;;;1.52;;
19566;SDS011;9930;49.240;8.548;2022-09-03T08:16:38;2.50;;;1.70;;
19566;SDS011;9930;49.240;8.548;2022-09-03T08:19:06;1.52;;;1.42;;
19566;SDS011;9930;49.240;8.548;2022-09-03T08:21:32;1.90;;;1.80;;
19566;SDS011;9930;49.240;8.548;2022-09-03T08:24:01;1.90;;;1.80;;
19566;SDS011;9930;49.240;8.548;2022-09-03T08:26:37;2.83;;;1.98;;
19566;SDS011;9930;49.240;8.548;2022-09-03T08:29:06;2.58;;;2.10;;
19566;SDS011;9930;49.240;8.548;2022-09-03T08:31:33;2.83;;;2.05;;
19566;SDS011;9930;49.240;8.548;2022-09-03T08:34:01;3.60;;;1.70;;
19566;SDS011;9930;49.240;8.548;2022-09-03T08:36:31;2.03;;;1.77;;
19566;SDS011;9930;49.240;8.548;2022-09-03T08:39:05;2.42;;;2.10;;
19566;SDS011;9930;49.240;8.548;2022-09-03T08:47:15;1.88;;;1.77;;
19566;SDS011;9930;49.240;8.548;2022-09-03T08:52:41;3.70;;;1.90;;
19566;SDS011;9930;49.240;8.548;2022-09-03T09:00:45;2.25;;;1.73;;
19566;SDS011;9930;49.240;8.548;2022-09-03T09:06:34;2.33;;;2.00;;
19566;SDS011;9930;49.240;8.548;2022-09-03T09:09:59;3.53;;;1.92;;
19566;SDS011;9930;49.240;8.548;2022-09-03T09:12:46;1.80;;;1.70;;
19566;SDS011;9930;49.240;8.548;2022-09-03T09:21:11;2.45;;;2.25;;
19566;SDS011;9930;49.240;8.548;2022-09-03T09:23:53;1.92;;;1.80;;
19566;SDS011;9930;49.240;8.548;2022-09-03T09:26:28;1.77;;;1.67;;
19566;SDS011;9930;49.240;8.548;2022-09-03T09:29:08;1.80;;;1.70;;
19566;SDS011;9930;49.240;8.548;2022-09-03T09:31:40;2.03;;;1.90;;
19566;SDS011;9930;49.240;8.548;2022-09-03T09:34:09;2.13;;;1.80;;
19566;SDS011;9930;49.240;8.548;2022-09-03T09:36:47;2.20;;;1.90;;
19566;SDS011;9930;49.240;8.548;2022-09-03T09:39:19;1.83;;;1.73;;
19566;SDS011;9930;49.240;8.548;2022-09-03T09:41:56;2.17;;;2.00;;
19566;SDS011;9930;49.240;8.548;2022-09-03T09:44:38;1.92;;;1.80;;
19566;SDS011;9930;49.240;8.548;2022-09-03T09:49:55;2.00;;;1.90;;
19566;SDS011;9930;49.240;8.548;2022-09-03T09:52:31;2.42;;;1.98;;
19566;SDS011;9930;49.240;8.548;2022-09-03T09:55:12;3.40;;;1.88;;
19566;SDS011;9930;49.240;8.548;2022-09-03T09:57:43;1.90;;;1.75;;
19566;SDS011;9930;49.240;8.548;2022-09-03T10:00:11;2.40;;;2.20;;
19566;SDS011;9930;49.240;8.548;2022-09-03T10:02:53;2.10;;;2.00;;
19566;SDS011;9930;49.240;8.548;2022-09-03T10:05:20;2.25;;;1.83;;
19566;SDS011;9930;49.240;8.548;2022-09-03T10:07:59;2.40;;;2.10;;
19566;SDS011;9930;49.240;8.548;2022-09-03T10:10:31;2.38;;;2.20;;
19566;SDS011;9930;49.240;8.548;2022-09-03T10:13:17;2.42;;;2.22;;
19566;SDS011;9930;49.240;8.548;2022-09-03T10:26:48;2.58;;;2.38;;
19566;SDS011;9930;49.240;8.548;2022-09-03T10:29:16;3.25;;;2.53;;
19566;SDS011;9930;49.240;8.548;2022-09-03T10:38:02;2.85;;;2.60;;
19566;SDS011;9930;49.240;8.548;2022-09-03T10:43:55;2.70;;;2.50;;
19566;SDS011;9930;49.240;8.548;2022-09-03T10:46:28;2.63;;;2.42;;
19566;SDS011;9930;49.240;8.548;2022-09-03T11:04:52;2.38;;;2.25;;
19566;SDS011;9930;49.240;8.548;2022-09-03T11:07:30;2.42;;;2.25;;
19566;SDS011;9930;49.240;8.548;2022-09-03T11:10:14;2.50;;;2.30;;
19566;SDS011;9930;49.240;8.548;2022-09-03T11:15:36;2.53;;;2.33;;
19566;SDS011;9930;49.240;8.548;2022-09-03T11:20:50;4.70;;;2.40;;
19566;SDS011;9930;49.240;8.548;2022-09-03T11:23:20;2.40;;;2.20;;
19566;SDS011;9930;49.240;8.548;2022-09-03T11:25:52;2.38;;;2.17;;
19566;SDS011;9930;49.240;8.548;2022-09-03T11:28:36;2.22;;;2.13;;
19566;SDS011;9930;49.240;8.548;2022-09-03T11:40:05;2.47;;;2.28;;
19566;SDS011;9930;49.240;8.548;2022-09-03T11:42:42;2.22;;;2.03;;
19566;SDS011;9930;49.240;8.548;2022-09-03T11:47:48;2.60;;;2.40;;
19566;SDS011;9930;49.240;8.548;2022-09-03T11:50:23;2.70;;;2.47;;
19566;SDS011;9930;49.240;8.548;2022-09-03T11:53:07;3.05;;;2.13;;
19566;SDS011;9930;49.240;8.548;2022-09-03T11:58:38;2.55;;;2.35;;
19566;SDS011;9930;49.240;8.548;2022-09-03T12:01:11;2.50;;;2.33;;
19566;SDS011;9930;49.240;8.548;2022-09-03T12:10:06;2.10;;;1.90;;
19566;SDS011;9930;49.240;8.548;2022-09-03T12:18:47;2.28;;;2.17;;
19566;SDS011;9930;49.240;8.548;2022-09-03T12:21:17;2.88;;;2.67;;
19566;SDS011;9930;49.240;8.548;2022-09-03T12:23:51;2.65;;;2.45;;
19566;SDS011;9930;49.240;8.548;2022-09-03T12:26:22;2.20;;;2.00;;
19566;SDS011;9930;49.240;8.548;2022-09-03T12:28:52;2.03;;;1.92;;
19566;SDS011;9930;49.240;8.548;2022-09-03T12:31:22;2.40;;;2.20;;
19566;SDS011;9930;49.240;8.548;2022-09-03T12:34:11;2.20;;;2.10;;
19566;SDS011;9930;49.240;8.548;2022-09-03T12:36:41;2.60;;;2.33;;
19566;SDS011;9930;49.240;8.548;2022-09-03T12:39:13;2.50;;;2.30;;
19566;SDS011;9930;49.240;8.548;2022-09-03T12:47:05;2.15;;;2.00;;
19566;SDS011;9930;49.240;8.548;2022-09-03T12:49:35;2.40;;;2.28;;
19566;SDS011;9930;49.240;8.548;2022-09-03T12:54:58;2.65;;;2.45;;
19566;SDS011;9930;49.240;8.548;2022-09-03T12:57:37;2.53;;;2.33;;
19566;SDS011;9930;49.240;8.548;2022-09-03T13:00:15;2.67;;;2.47;;
19566;SDS011;9930;49.240;8.548;2022-09-03T13:02:52;2.97;;;2.55;;
19566;SDS011;9930;49.240;8.548;2022-09-03T13:05:46;2.88;;;2.67;;
19566;SDS011;9930;49.240;8.548;2022-09-03T13:08:21;2.80;;;2.60;;
19566;SDS011;9930;49.240;8.548;2022-09-03T13:11:00;2.83;;;2.63;;
19566;SDS011;9930;49.240;8.548;2022-09-03T13:13:32;2.80;;;2.60;;
19566;SDS011;9930;49.240;8.548;2022-09-03T13:16:05;3.33;;;3.13;;
19566;SDS011;9930;49.240;8.548;2022-09-03T13:19:12;3.30;;;3.10;;
19566;SDS011;9930;49.240;8.548;2022-09-03T13:22:11;2.75;;;2.55;;
19566;SDS011;9930;49.240;8.548;2022-09-03T13:30:15;2.60;;;2.40;;
19566;SDS011;9930;49.240;8.548;2022-09-03T13:35:38;2.75;;;2.55;;
19566;SDS011;9930;49.240;8.548;2022-09-03T13:38:45;3.03;;;2.50;;
19566;SDS011;9930;49.240;8.548;2022-09-03T13:52:48;2.80;;;2.60;;
19566;SDS011;9930;49.240;8.548;2022-09-03T13:55:59;2.38;;;2.28;;
19566;SDS011;9930;49.240;8.548;2022-09-03T13:58:47;2.42;;;2.33;;
19566;SDS011;9930;49.240;8.548;2022-09-03T14:01:45;3.00;;;2.80;;
19566;SDS011;9930;49.240;8.548;2022-09-03T14:04:43;2.67;;;2.47;;
19566;SDS011;9930;49.240;8.548;2022-09-03T14:13:29;2.40;;;2.20;;
19566;SDS011;9930;49.240;8.548;2022-09-03T14:16:06;2.58;;;2.38;;
19566;SDS011;9930;49.240;8.548;2022-09-03T14:19:15;2.58;;;2.38;;
19566;SDS011;9930;49.240;8.548;2022-09-03T14:27:27;2.42;;;2.33;;
19566;SDS011;9930;49.240;8.548;2022-09-03T14:30:06;2.83;;;2.65;;
19566;SDS011;9930;49.240;8.548;2022-09-03T14:33:21;3.10;;;2.90;;
19566;SDS011;9930;49.240;8.548;2022-09-03T14:36:21;3.00;;;2.80;;
19566;SDS011;9930;49.240;8.548;2022-09-03T14:42:36;2.97;;;2.78;;
19566;SDS011;9930;49.240;8.548;2022-09-03T14:45:42;2.90;;;2.70;;
19566;SDS011;9930;49.240;8.548;2022-09-03T14:54:37;3.28;;;3.08;;
19566;SDS011;9930;49.240;8.548;2022-09-03T14:57:29;3.65;;;3.45;;
19566;SDS011;9930;49.240;8.548;2022-09-03T15:00:18;3.17;;;2.90;;
19566;SDS011;9930;49.240;8.548;2022-09-03T15:11:28;3.40;;;3.20;;
19566;SDS011;9930;49.240;8.548;2022-09-03T15:14:09;3.30;;;3.10;;
19566;SDS011;9930;49.240;8.548;2022-09-03T15:26:07;3.13;;;2.83;;
19566;SDS011;9930;49.240;8.548;2022-09-03T15:37:11;3.65;;;3.35;;
19566;SDS011;9930;49.240;8.548;2022-09-03T15:39:45;2.83;;;2.63;;
19566;SDS011;9930;49.240;8.548;2022-09-03T15:42:42;2.92;;;2.72;;
19566;SDS011;9930;49.240;8.548;2022-09-03T15:51:19;2.55;;;2.35;;
19566;SDS011;9930;49.240;8.548;2022-09-03T15:59:46;3.95;;;3.65;;
19566;SDS011;9930;49.240;8.548;2022-09-03T16:02:26;3.83;;;3.40;;
19566;SDS011;9930;49.240;8.548;2022-09-03T16:05:20;2.67;;;2.47;;
19566;SDS011;9930;49.240;8.548;2022-09-03T16:22:30;2.45;;;2.30;;
19566;SDS011;9930;49.240;8.548;2022-09-03T16:25:30;2.95;;;2.00;;
19566;SDS011;9930;49.240;8.548;2022-09-03T16:28:31;1.98;;;1.88;;
19566;SDS011;9930;49.240;8.548;2022-09-03T16:37:40;2.10;;;2.00;;
19566;SDS011;9930;49.240;8.548;2022-09-03T16:49:29;2.40;;;2.20;;
19566;SDS011;9930;49.240;8.548;2022-09-03T16:55:23;2.60;;;2.40;;
19566;SDS011;9930;49.240;8.548;2022-09-03T17:18:34;3.10;;;2.80;;
19566;SDS011;9930;49.240;8.548;2022-09-03T17:21:55;2.70;;;2.50;;
19566;SDS011;9930;49.240;8.548;2022-09-03T17:33:13;2.60;;;2.47;;
19566;SDS011;9930;49.240;8.548;2022-09-03T17:41:50;3.35;;;2.08;;
19566;SDS011;9930;49.240;8.548;2022-09-03T17:52:56;1.85;;;1.75;;
19566;SDS011;9930;49.240;8.548;2022-09-03T17:58:40;1.90;;;1.65;;
19566;SDS011;9930;49.240;8.548;2022-09-03T18:01:45;2.10;;;1.90;;
19566;SDS011;9930;49.240;8.548;2022-09-03T18:07:17;1.65;;;1.55;;
19566;SDS011;9930;49.240;8.548;2022-09-03T18:12:50;1.67;;;1.58;;
19566;SDS011;9930;49.240;8.548;2022-09-03T18:15:53;1.60;;;1.50;;
19566;SDS011;9930;49.240;8.548;2022-09-03T18:18:44;2.25;;;2.13;;
19566;SDS011;9930;49.240;8.548;2022-09-03T18:21:22;3.28;;;2.30;;
19566;SDS011;9930;49.240;8.548;2022-09-03T18:30:37;2.50;;;2.15;;
19566;SDS011;9930;49.240;8.548;2022-09-03T18:33:23;2.85;;;2.65;;
19566;SDS011;9930;49.240;8.548;2022-09-03T18:36:09;4.20;;;3.25;;
19566;SDS011;9930;49.240;8.548;2022-09-03T18:38:57;3.50;;;3.20;;
19566;SDS011;9930;49.240;8.548;2022-09-03T18:48:00;3.40;;;3.10;;
19566;SDS011;9930;49.240;8.548;2022-09-03T19:10:59;3.63;;;3.33;;
19566;SDS011;9930;49.240;8.548;2022-09-03T19:14:11;3.47;;;3.17;;
19566;SDS011;9930;49.240;8.548;2022-09-03T19:24:21;2.78;;;2.58;;
19566;SDS011;9930;49.240;8.548;2022-09-03T19:33:38;3.10;;;2.90;;
19566;SDS011;9930;49.240;8.548;2022-09-03T19:40:02;3.60;;;2.95;;
19566;SDS011;9930;49.240;8.548;2022-09-03T19:46:35;2.78;;;2.58;;
19566;SDS011;9930;49.240;8.548;2022-09-03T19:52:39;3.17;;;2.90;;
19566;SDS011;9930;49.240;8.548;2022-09-03T19:55:33;3.20;;;2.88;;
19566;SDS011;9930;49.240;8.548;2022-09-03T19:58:23;3.53;;;3.22;;
19566;SDS011;9930;49.240;8.548;2022-09-03T20:01:16;3.53;;;3.22;;
19566;SDS011;9930;49.240;8.548;2022-09-03T20:04:07;2.40;;;2.30;;
19566;SDS011;9930;49.240;8.548;2022-09-03T20:06:57;2.72;;;2.53;;
19566;SDS011;9930;49.240;8.548;2022-09-03T20:09:52;3.80;;;3.17;;
19566;SDS011;9930;49.240;8.548;2022-09-03T20:18:48;3.33;;;3.03;;
19566;SDS011;9930;49.240;8.548;2022-09-03T20:22:11;3.38;;;3.03;;
19566;SDS011;9930;49.240;8.548;2022-09-03T20:30:47;2.95;;;2.75;;
19566;SDS011;9930;49.240;8.548;2022-09-03T20:38:54;3.65;;;2.80;;
19566;SDS011;9930;49.240;8.548;2022-09-03T20:45:11;3.17;;;2.97;;
19566;SDS011;9930;49.240;8.548;2022-09-03T20:50:43;3.10;;;2.90;;
19566;SDS011;9930;49.240;8.548;2022-09-03T20:53:38;3.60;;;3.30;;
19566;SDS011;9930;49.240;8.548;2022-09-03T21:02:43;3.50;;;3.20;;
19566;SDS011;9930;49.240;8.548;2022-09-03T21:17:44;3.10;;;2.88;;
19566;SDS011;9930;49.240;8.548;2022-09-03T21:23:08;3.30;;;2.88;;
19566;SDS011;9930;49.240;8.548;2022-09-03T21:25:57;3.08;;;2.88;;
19566;SDS011;9930;49.240;8.548;2022-09-03T21:28:56;3.20;;;3.00;;
19566;SDS011;9930;49.240;8.548;2022-09-03T21:31:56;3.95;;;3.08;;
19566;SDS011;9930;49.240;8.548;2022-09-03T21:34:36;3.28;;;3.08;;
19566;SDS011;9930;49.240;8.548;2022-09-03T21:37:10;3.45;;;3.25;;
19566;SDS011;9930;49.240;8.548;2022-09-03T21:39:45;3.83;;;3.53;;
19566;SDS011;9930;49.240;8.548;2022-09-03T21:42:25;3.80;;;3.50;;
19566;SDS011;9930;49.240;8.548;2022-09-03T21:48:05;3.47;;;3.17;;
19566;SDS011;9930;49.240;8.548;2022-09-03T21:59:48;3.47;;;3.17;;
19566;SDS011;9930;49.240;8.548;2022-09-03T22:02:37;3.00;;;2.80;;
19566;SDS011;9930;49.240;8.548;2022-09-03T22:05:07;3.65;;;3.35;;
19566;SDS011;9930;49.240;8.548;2022-09-03T22:07:54;3.47;;;3.17;;
19566;SDS011;9930;49.240;8.548;2022-09-03T22:16:13;3.00;;;2.80;;
19566;SDS011;9930;49.240;8.548;2022-09-03T22:19:02;3.20;;;2.90;;
19566;SDS011;9930;49.240;8.548;2022-09-03T22:21:35;3.60;;;3.10;;
19566;SDS011;9930;49.240;8.548;2022-09-03T22:24:19;3.53;;;3.22;;
19566;SDS011;9930;49.240;8.548;2022-09-03T22:27:35;3.60;;;3.30;;
19566;SDS011;9930;49.240;8.548;2022-09-03T22:30:12;3.20;;;2.90;;
19566;SDS011;9930;49.240;8.548;2022-09-03T22:38:51;3.10;;;2.90;;
19566;SDS011;9930;49.240;8.548;2022-09-03T22:44:29;2.80;;;2.60;;
19566;SDS011;9930;49.240;8.548;2022-09-03T22:55:30;2.80;;;2.40;;
19566;SDS011;9930;49.240;8.548;2022-09-03T22:58:14;2.80;;;2.60;;
19566;SDS011;9930;49.240;8.548;2022-09-03T23:01:00;2.42;;;2.25;;
19566;SDS011;9930;49.240;8.548;2022-09-03T23:06:45;2.75;;;2.60;;
19566;SDS011;9930;49.240;8.548;2022-09-03T23:09:21;3.30;;;2.60;;
19566;SDS011;9930;49.240;8.548;2022-09-03T23:12:01;3.13;;;2.35;;
19566;SDS011;9930;49.240;8.548;2022-09-03T23:14:48;2.80;;;2.60;;
19566;SDS011;9930;49.240;8.548;2022-09-03T23:17:36;2.90;;;2.70;;
19566;SDS011;9930;49.240;8.548;2022-09-03T23:20:16;2.70;;;2.50;;
19566;SDS011;9930;49.240;8.548;2022-09-03T23:22:49;2.95;;;2.65;;
19566;SDS011;9930;49.240;8.548;2022-09-03T23:25:31;2.70;;;2.50;;
19566;SDS011;9930;49.240;8.548;2022-09-03T23:30:46;2.80;;;2.50;;
19566;SDS011;9930;49.240;8.548;2022-09-03T23:33:11;3.47;;;2.53;;
19566;SDS011;9930;49.240;8.548;2022-09-03T23:36:24;2.55;;;2.35;;
19566;SDS011;9930;49.240;8.548;2022-09-03T23:38:48;2.97;;;2.75;;
19566;SDS011;9930;49.240;8.548;2022-09-03T23:42:03;2.67;;;2.47;;
19566;SDS011;9930;49.240;8.548;2022-09-03T23:47:42;2.50;;;2.30;;
19566;SDS011;9930;49.240;8.548;2022-09-03T23:53:57;2.25;;;2.05;;
19566;SDS011;9930;49.240;8.548;2022-09-03T23:56:55;2.63;;;2.42;;
